createdAt,value
2019-04-20T00:01:52.566Z,6.87
2019-04-20T00:04:24.741Z,10.63
2019-04-20T00:06:51.335Z,7.13
2019-04-20T00:09:19.350Z,7.43
2019-04-20T00:11:53.672Z,6.67
2019-04-20T00:14:16.205Z,6.93
2019-04-20T00:16:37.629Z,7.07
2019-04-20T00:19:05.433Z,8.90
2019-04-20T00:21:46.970Z,7.27
2019-04-20T00:24:15.765Z,7.90
2019-04-20T00:27:04.929Z,7.20
2019-04-20T00:29:22.678Z,7.37
2019-04-20T00:31:47.781Z,6.67
2019-04-20T00:34:08.088Z,7.73
2019-04-20T00:36:26.284Z,9.10
2019-04-20T00:38:56.890Z,9.13
2019-04-20T00:41:21.213Z,7.10
2019-04-20T00:43:47.303Z,7.50
2019-04-20T00:46:23.094Z,7.90
2019-04-20T00:48:50.656Z,9.43
2019-04-20T00:51:33.933Z,7.67
2019-04-20T00:53:42.715Z,10.63
2019-04-20T00:56:05.490Z,8.77
2019-04-20T00:58:47.850Z,7.87
2019-04-20T01:01:20.623Z,8.00
2019-04-20T01:03:42.298Z,8.90
2019-04-20T01:06:19.273Z,7.60
2019-04-20T01:08:27.527Z,10.20
2019-04-20T01:10:57.672Z,8.33
2019-04-20T01:13:23.868Z,17.67
2019-04-20T01:15:56.295Z,8.90
2019-04-20T01:18:17.202Z,7.83
2019-04-20T01:20:45.206Z,8.83
2019-04-20T01:23:15.748Z,8.53
2019-04-20T01:25:43.635Z,8.37
2019-04-20T01:28:24.493Z,11.20
2019-04-20T01:30:39.808Z,8.53
2019-04-20T01:33:18.824Z,8.83
2019-04-20T01:35:45.695Z,8.83
2019-04-20T01:38:16.884Z,10.20
2019-04-20T01:40:25.273Z,8.90
2019-04-20T01:42:51.514Z,11.13
2019-04-20T01:45:27.182Z,8.43
2019-04-20T01:47:51.469Z,7.70
2019-04-20T01:50:20.972Z,9.27
2019-04-20T01:52:50.721Z,8.70
2019-04-20T01:55:33.249Z,8.53
2019-04-20T01:58:06.167Z,11.20
2019-04-20T02:00:36.537Z,10.10
2019-04-20T02:03:17.116Z,9.50
2019-04-20T02:05:54.008Z,8.43
2019-04-20T02:08:14.473Z,9.37
2019-04-20T02:10:46.818Z,9.60
2019-04-20T02:13:09.111Z,10.10
2019-04-20T02:15:40.365Z,9.53
2019-04-20T02:18:16.248Z,9.57
2019-04-20T02:20:53.187Z,10.90
2019-04-20T02:23:10.555Z,9.10
2019-04-20T02:25:24.931Z,11.53
2019-04-20T02:27:55.548Z,8.83
2019-04-20T02:30:58.002Z,9.63
2019-04-20T02:33:27.479Z,9.33
2019-04-20T02:35:58.408Z,11.00
2019-04-20T02:38:36.848Z,10.90
2019-04-20T02:40:47.396Z,11.03
2019-04-20T02:43:25.386Z,10.80
2019-04-20T02:45:44.197Z,10.20
2019-04-20T02:48:01.254Z,10.70
2019-04-20T02:50:30.783Z,10.73
2019-04-20T02:53:04.852Z,10.73
2019-04-20T02:55:24.032Z,10.43
2019-04-20T03:00:12.724Z,10.33
2019-04-20T03:02:33.520Z,10.93
2019-04-20T03:04:51.390Z,12.17
2019-04-20T03:07:25.445Z,10.50
2019-04-20T03:09:58.261Z,10.30
2019-04-20T03:12:28.862Z,9.90
2019-04-20T03:14:47.849Z,11.07
2019-04-20T03:17:22.695Z,12.97
2019-04-20T03:19:41.129Z,10.80
2019-04-20T03:22:21.432Z,10.83
2019-04-20T03:25:01.980Z,12.63
2019-04-20T03:27:07.128Z,12.00
2019-04-20T03:30:04.208Z,12.83
2019-04-20T03:32:53.464Z,11.60
2019-04-20T03:37:27.950Z,12.07
2019-04-20T03:39:43.959Z,11.47
2019-04-20T03:41:55.286Z,12.50
2019-04-20T03:44:25.556Z,12.37
2019-04-20T03:46:57.045Z,11.47
2019-04-20T03:49:42.336Z,12.10
2019-04-20T03:52:06.967Z,11.00
2019-04-20T03:54:30.826Z,10.40
2019-04-20T03:57:21.123Z,9.57
2019-04-20T04:00:00.197Z,13.27
2019-04-20T04:02:43.343Z,13.70
2019-04-20T04:05:04.582Z,11.60
2019-04-20T04:07:19.550Z,12.67
2019-04-20T04:09:59.198Z,13.67
2019-04-20T04:12:41.808Z,13.07
2019-04-20T04:15:06.523Z,14.23
2019-04-20T04:17:38.378Z,12.73
2019-04-20T04:20:07.101Z,14.37
2019-04-20T04:22:43.681Z,16.13
2019-04-20T04:25:09.991Z,14.50
2019-04-20T04:27:40.478Z,13.27
2019-04-20T04:30:05.152Z,12.77
2019-04-20T04:33:03.007Z,12.40
2019-04-20T04:35:04.314Z,12.03
2019-04-20T04:37:34.973Z,17.23
2019-04-20T04:40:00.994Z,13.07
2019-04-20T04:42:30.315Z,14.90
2019-04-20T04:44:46.819Z,13.13
2019-04-20T04:47:05.203Z,12.07
2019-04-20T04:49:35.087Z,13.00
2019-04-20T04:52:04.084Z,13.77
2019-04-20T04:54:33.603Z,17.63
2019-04-20T04:56:52.586Z,12.70
2019-04-20T04:59:19.316Z,12.17
2019-04-20T05:01:51.456Z,12.07
2019-04-20T05:04:33.344Z,16.83
2019-04-20T05:06:59.737Z,17.43
2019-04-20T05:09:12.345Z,15.10
2019-04-20T05:11:36.711Z,12.60
2019-04-20T05:14:08.424Z,16.40
2019-04-20T05:16:55.567Z,17.17
2019-04-20T05:19:19.252Z,13.90
2019-04-20T05:21:54.810Z,15.27
2019-04-20T05:24:22.563Z,15.60
2019-04-20T05:26:58.321Z,14.00
2019-04-20T05:29:08.456Z,14.53
2019-04-20T05:31:33.981Z,16.37
2019-04-20T05:34:20.567Z,14.37
2019-04-20T05:36:41.582Z,14.80
2019-04-20T05:39:14.457Z,13.33
2019-04-20T05:41:40.316Z,18.70
2019-04-20T05:44:02.091Z,15.90
2019-04-20T05:46:32.367Z,16.20
2019-04-20T05:49:02.599Z,16.80
2019-04-20T05:51:29.519Z,16.13
2019-04-20T05:54:01.112Z,17.07
2019-04-20T05:56:29.339Z,15.60
2019-04-20T05:58:50.828Z,17.60
2019-04-20T06:01:22.755Z,18.63
2019-04-20T06:03:45.333Z,14.67
2019-04-20T06:06:15.131Z,16.73
2019-04-20T06:08:47.963Z,17.47
2019-04-20T06:11:09.408Z,18.80
2019-04-20T06:13:48.454Z,19.37
2019-04-20T06:16:14.190Z,16.80
2019-04-20T06:18:49.609Z,16.87
2019-04-20T06:21:32.246Z,14.63
2019-04-20T06:24:10.593Z,19.13
2019-04-20T06:26:49.066Z,17.23
2019-04-20T06:29:07.037Z,14.33
2019-04-20T06:31:35.552Z,20.53
2019-04-20T06:36:47.454Z,18.17
2019-04-20T06:39:08.006Z,14.17
2019-04-20T06:41:57.117Z,14.20
2019-04-20T06:44:08.187Z,14.40
2019-04-20T06:46:29.250Z,13.60
2019-04-20T06:49:05.338Z,15.03
2019-04-20T06:51:29.994Z,16.20
2019-04-20T06:53:51.565Z,13.30
2019-04-20T06:56:24.754Z,12.10
2019-04-20T06:58:49.779Z,15.13
2019-04-20T07:01:17.195Z,15.20
2019-04-20T07:04:13.848Z,13.27
2019-04-20T07:06:30.888Z,12.47
2019-04-20T07:08:51.085Z,13.00
2019-04-20T07:11:10.947Z,14.63
2019-04-20T07:13:27.140Z,11.70
2019-04-20T07:15:53.118Z,10.88
2019-04-20T07:18:29.830Z,10.57
2019-04-20T07:21:05.585Z,12.60
2019-04-20T07:23:41.918Z,12.60
2019-04-20T07:26:13.796Z,11.57
2019-04-20T07:28:40.815Z,13.63
2019-04-20T07:30:57.001Z,16.20
2019-04-20T07:33:30.361Z,12.07
2019-04-20T07:35:50.841Z,12.53
2019-04-20T07:38:32.992Z,14.57
2019-04-20T07:40:44.097Z,16.60
2019-04-20T07:43:14.670Z,12.77
2019-04-20T07:45:37.604Z,11.53
2019-04-20T07:50:31.766Z,13.33
2019-04-20T07:52:58.795Z,12.97
2019-04-20T07:55:40.445Z,12.53
2019-04-20T07:57:53.828Z,13.93
2019-04-20T08:00:35.083Z,11.40
2019-04-20T08:03:20.127Z,16.27
2019-04-20T08:05:45.805Z,12.10
2019-04-20T08:08:17.177Z,12.73
2019-04-20T08:10:47.515Z,15.30
2019-04-20T08:13:17.577Z,16.13
2019-04-20T08:15:58.764Z,16.87
2019-04-20T08:18:07.427Z,15.00
2019-04-20T08:20:35.213Z,14.43
2019-04-20T08:23:12.334Z,16.80
2019-04-20T08:25:23.545Z,15.60
2019-04-20T08:27:57.099Z,17.37
2019-04-20T08:30:41.286Z,18.67
2019-04-20T08:33:09.460Z,13.43
2019-04-20T08:35:48.146Z,13.00
2019-04-20T08:38:47.235Z,15.30
2019-04-20T08:40:37.411Z,17.33
2019-04-20T08:43:17.254Z,15.93
2019-04-20T08:45:39.598Z,15.43
2019-04-20T08:48:04.319Z,14.53
2019-04-20T08:50:41.483Z,15.50
2019-04-20T08:55:19.745Z,15.97
2019-04-20T08:57:29.336Z,13.90
2019-04-20T08:59:56.272Z,13.37
2019-04-20T09:02:23.934Z,13.53
2019-04-20T09:04:58.291Z,13.33
2019-04-20T09:07:23.254Z,12.70
2019-04-20T09:10:14.665Z,14.33
2019-04-20T09:12:33.361Z,15.00
2019-04-20T09:14:42.658Z,14.57
2019-04-20T09:17:32.447Z,13.23
2019-04-20T09:20:00.231Z,15.07
2019-04-20T09:22:51.404Z,12.77
2019-04-20T09:26:18.627Z,12.63
2019-04-20T09:27:40.805Z,13.18
2019-04-20T09:30:17.791Z,13.23
2019-04-20T09:32:44.079Z,12.27
2019-04-20T09:35:19.382Z,12.82
2019-04-20T09:37:47.357Z,15.52
2019-04-20T09:40:21.290Z,15.40
2019-04-20T09:42:31.252Z,12.45
2019-04-20T09:45:02.485Z,13.75
2019-04-20T09:47:34.129Z,13.73
2019-04-20T09:50:03.761Z,16.95
2019-04-20T09:52:38.156Z,14.63
2019-04-20T09:55:02.526Z,14.37
2019-04-20T09:57:33.297Z,17.27
2019-04-20T10:00:01.440Z,15.47
2019-04-20T10:02:19.892Z,17.03
2019-04-20T10:04:39.790Z,17.87
2019-04-20T10:07:12.855Z,16.63
2019-04-20T10:09:38.205Z,16.70
2019-04-20T10:12:01.692Z,18.63
2019-04-20T10:14:28.944Z,16.67
2019-04-20T10:16:56.160Z,18.90
2019-04-20T10:19:30.143Z,17.83
2019-04-20T10:21:51.133Z,16.90
2019-04-20T10:24:18.876Z,19.07
2019-04-20T10:26:46.121Z,16.67
2019-04-20T10:29:13.604Z,17.70
2019-04-20T10:31:48.510Z,16.30
2019-04-20T10:34:09.506Z,17.57
2019-04-20T10:36:45.846Z,16.37
2019-04-20T10:39:12.877Z,17.07
2019-04-20T10:41:48.261Z,17.27
2019-04-20T10:44:07.472Z,13.53
2019-04-20T10:46:35.086Z,14.40
2019-04-20T10:49:04.317Z,14.63
2019-04-20T10:51:29.947Z,14.50
2019-04-20T10:53:58.308Z,17.13
2019-04-20T10:56:25.383Z,15.33
2019-04-20T10:58:53.782Z,13.20
2019-04-20T11:01:20.009Z,13.60
2019-04-20T11:03:47.435Z,14.57
2019-04-20T11:06:16.415Z,14.00
2019-04-20T11:08:42.567Z,11.90
2019-04-20T11:11:16.465Z,12.10
2019-04-20T11:13:37.580Z,11.73
2019-04-20T11:16:06.353Z,12.87
2019-04-20T11:18:33.455Z,15.27
2019-04-20T11:20:59.897Z,14.77
2019-04-20T11:23:28.613Z,12.57
2019-04-20T11:25:56.000Z,12.87
2019-04-20T11:28:22.326Z,12.20
2019-04-20T11:30:50.104Z,12.13
2019-04-20T11:33:18.241Z,11.43
2019-04-20T11:35:46.187Z,11.83
2019-04-20T11:38:14.286Z,13.73
2019-04-20T11:40:41.211Z,10.73
2019-04-20T11:43:07.906Z,10.60
2019-04-20T11:45:34.696Z,11.37
2019-04-20T11:48:03.295Z,10.17
2019-04-20T11:50:29.673Z,10.47
2019-04-20T11:52:57.307Z,12.50
2019-04-20T11:55:24.614Z,12.33
2019-04-20T11:57:52.077Z,8.10
2019-04-20T12:00:24.047Z,6.07
2019-04-20T12:03:16.039Z,7.57
2019-04-20T12:05:41.269Z,7.47
2019-04-20T12:08:03.079Z,8.10
2019-04-20T12:10:31.512Z,7.57
2019-04-20T12:12:59.512Z,7.83
2019-04-20T12:15:26.560Z,5.90
2019-04-20T12:17:53.685Z,8.37
2019-04-20T12:20:20.866Z,7.10
2019-04-20T12:22:48.385Z,8.07
2019-04-20T12:25:16.093Z,6.87
2019-04-20T12:27:50.782Z,8.93
2019-04-20T12:30:10.476Z,6.97
2019-04-20T12:32:42.941Z,8.43
2019-04-20T12:35:08.547Z,8.13
2019-04-20T12:37:36.835Z,7.80
2019-04-20T12:40:03.264Z,6.50
2019-04-20T12:42:30.902Z,7.73
2019-04-20T12:44:59.604Z,8.07
2019-04-20T12:47:25.816Z,7.53
2019-04-20T12:49:53.772Z,7.07
2019-04-20T12:52:20.751Z,7.33
2019-04-20T12:54:48.120Z,6.30
2019-04-20T12:57:16.544Z,7.93
2019-04-20T12:59:45.615Z,8.27
2019-04-20T13:02:11.347Z,6.43
2019-04-20T13:04:39.371Z,7.27
2019-04-20T13:07:05.899Z,6.57
2019-04-20T13:09:33.019Z,7.33
2019-04-20T13:12:10.203Z,7.53
2019-04-20T13:14:46.484Z,6.83
2019-04-20T13:17:14.456Z,9.40
2019-04-20T13:19:41.528Z,7.77
2019-04-20T13:22:07.979Z,7.67
2019-04-20T13:24:36.872Z,8.50
2019-04-20T13:27:02.987Z,6.30
2019-04-20T13:29:30.977Z,6.93
2019-04-20T13:31:58.514Z,6.90
2019-04-20T13:34:26.397Z,7.57
2019-04-20T13:36:52.891Z,6.83
2019-04-20T13:39:20.352Z,7.67
2019-04-20T13:42:00.689Z,9.50
2019-04-20T13:44:15.748Z,7.63
2019-04-20T13:46:42.966Z,6.70
2019-04-20T13:49:11.166Z,7.53
2019-04-20T13:51:38.960Z,6.70
2019-04-20T13:54:06.305Z,7.10
2019-04-20T13:56:34.012Z,6.37
2019-04-20T13:59:05.968Z,6.47
2019-04-20T14:01:39.085Z,6.23
2019-04-20T14:04:10.656Z,6.37
2019-04-20T14:06:37.328Z,7.00
2019-04-20T14:09:05.567Z,6.63
2019-04-20T14:11:32.112Z,6.60
2019-04-20T14:14:02.816Z,8.27
2019-04-20T14:16:27.235Z,8.93
2019-04-20T14:18:55.396Z,9.17
2019-04-20T14:21:22.042Z,8.10
2019-04-20T14:23:50.792Z,8.80
2019-04-20T14:26:16.958Z,6.97
2019-04-20T14:28:45.117Z,7.27
2019-04-20T14:31:12.103Z,10.13
2019-04-20T14:33:39.388Z,7.33
2019-04-20T14:36:06.883Z,7.10
2019-04-20T14:38:34.335Z,7.47
2019-04-20T14:41:02.265Z,7.70
2019-04-20T14:43:31.695Z,7.47
2019-04-20T14:45:56.802Z,8.97
2019-04-20T14:48:24.949Z,8.57
2019-04-20T14:50:51.949Z,7.97
2019-04-20T14:53:19.871Z,9.13
2019-04-20T14:55:47.228Z,8.13
2019-04-20T14:58:33.727Z,7.43
2019-04-20T15:01:00.585Z,7.77
2019-04-20T15:03:28.300Z,8.53
2019-04-20T15:05:55.715Z,7.10
2019-04-20T15:08:22.843Z,9.20
2019-04-20T15:10:52.011Z,9.83
2019-04-20T15:13:17.512Z,8.70
2019-04-20T15:15:46.361Z,8.87
2019-04-20T15:18:13.450Z,11.17
2019-04-20T15:20:39.927Z,7.97
2019-04-20T15:23:07.667Z,7.30
2019-04-20T15:25:34.879Z,8.40
2019-04-20T15:28:02.709Z,8.20
2019-04-20T15:30:29.988Z,7.35
2019-04-20T15:32:57.318Z,9.33
2019-04-20T15:35:25.966Z,9.80
2019-04-20T15:37:53.237Z,8.27
2019-04-20T15:40:19.746Z,9.77
2019-04-20T15:42:56.658Z,10.70
2019-04-20T15:45:15.672Z,9.77
2019-04-20T15:47:42.166Z,10.43
2019-04-20T15:50:09.731Z,8.37
2019-04-20T15:52:44.588Z,8.30
2019-04-20T15:55:10.200Z,7.47
2019-04-20T15:57:34.516Z,9.10
2019-04-20T16:00:00.288Z,8.87
2019-04-20T16:02:45.354Z,6.77
2019-04-20T16:05:31.141Z,8.53
2019-04-20T16:08:01.973Z,8.43
2019-04-20T16:10:28.424Z,8.40
2019-04-20T16:13:05.697Z,7.67
2019-04-20T16:15:22.069Z,7.13
2019-04-20T16:17:52.660Z,7.67
2019-04-20T16:20:20.204Z,8.43
2019-04-20T16:22:44.785Z,7.63
2019-04-20T16:25:13.865Z,10.93
2019-04-20T16:27:41.608Z,9.87
2019-04-20T16:30:09.691Z,7.07
2019-04-20T16:32:36.616Z,8.83
2019-04-20T16:35:04.541Z,7.47
2019-04-20T16:37:32.615Z,9.03
2019-04-20T16:39:58.760Z,8.23
2019-04-20T16:42:26.619Z,6.83
2019-04-20T16:44:53.754Z,9.70
2019-04-20T16:47:21.979Z,8.23
2019-04-20T16:49:48.862Z,7.83
2019-04-20T16:52:16.800Z,6.57
2019-04-20T16:54:43.863Z,7.17
2019-04-20T16:57:12.606Z,8.30
2019-04-20T16:59:43.955Z,6.37
2019-04-20T17:02:06.651Z,6.97
2019-04-20T17:04:33.907Z,7.10
2019-04-20T17:07:10.287Z,6.20
2019-04-20T17:09:37.933Z,7.07
2019-04-20T17:12:05.863Z,8.10
2019-04-20T17:14:33.639Z,9.93
2019-04-20T17:17:00.031Z,6.80
2019-04-20T17:19:27.908Z,11.07
2019-04-20T17:21:57.188Z,8.43
2019-04-20T17:24:22.237Z,8.57
2019-04-20T17:26:50.755Z,6.57
2019-04-20T17:29:18.038Z,7.83
2019-04-20T17:31:51.287Z,8.83
2019-04-20T17:34:36.133Z,8.50
2019-04-20T17:36:46.556Z,11.07
2019-04-20T17:39:25.283Z,8.10
2019-04-20T17:42:01.852Z,7.23
2019-04-20T17:44:27.894Z,6.73
2019-04-20T17:46:45.239Z,7.13
2019-04-20T17:49:15.857Z,11.90
2019-04-20T17:51:53.514Z,7.33
2019-04-20T17:54:03.130Z,7.30
2019-04-20T17:56:26.332Z,6.70
2019-04-20T17:58:52.547Z,7.30
2019-04-20T18:01:51.225Z,8.63
2019-04-20T18:04:34.367Z,8.53
2019-04-20T18:06:47.962Z,7.43
2019-04-20T18:09:18.472Z,10.37
2019-04-20T18:11:38.578Z,8.37
2019-04-20T18:14:04.280Z,8.30
2019-04-20T18:16:48.055Z,8.70
2019-04-20T18:19:07.396Z,10.50
2019-04-20T18:21:39.701Z,7.50
2019-04-20T18:24:05.296Z,9.30
2019-04-20T18:26:48.142Z,7.47
2019-04-20T18:29:15.156Z,10.70
2019-04-20T18:31:25.931Z,7.40
2019-04-20T18:33:54.091Z,7.23
2019-04-20T18:36:30.249Z,14.83
2019-04-20T18:38:54.236Z,8.47
2019-04-20T18:41:28.838Z,11.23
2019-04-20T18:43:48.642Z,14.97
2019-04-20T18:46:29.424Z,10.90
2019-04-20T18:48:54.348Z,8.73
2019-04-20T18:51:05.900Z,8.10
2019-04-20T18:53:39.496Z,8.10
2019-04-20T18:56:03.985Z,7.07
2019-04-20T18:58:29.004Z,8.27
2019-04-20T19:00:57.091Z,6.10
2019-04-20T19:03:32.250Z,7.70
2019-04-20T19:05:51.679Z,7.60
2019-04-20T19:08:19.289Z,8.00
2019-04-20T19:10:54.136Z,8.10
2019-04-20T19:13:22.369Z,11.40
2019-04-20T19:15:56.493Z,7.50
2019-04-20T19:18:38.440Z,9.17
2019-04-20T19:20:48.676Z,7.93
2019-04-20T19:23:14.914Z,8.93
2019-04-20T19:25:44.082Z,7.13
2019-04-20T19:28:10.634Z,8.47
2019-04-20T19:30:47.064Z,7.90
2019-04-20T19:33:18.769Z,9.97
2019-04-20T19:35:41.760Z,8.53
2019-04-20T19:38:09.819Z,8.07
2019-04-20T19:40:40.794Z,7.17
2019-04-20T19:43:08.592Z,8.27
2019-04-20T19:46:15.259Z,7.77
2019-04-20T19:48:07.616Z,7.47
2019-04-20T19:50:57.729Z,7.27
2019-04-20T19:53:11.229Z,7.33
2019-04-20T19:55:28.596Z,7.97
2019-04-20T19:57:56.549Z,9.67
2019-04-20T20:00:08.255Z,7.50
2019-04-20T20:02:35.958Z,9.73
2019-04-20T20:05:08.264Z,7.20
2019-04-20T20:07:35.868Z,10.00
2019-04-20T20:10:00.490Z,8.17
2019-04-20T20:12:25.433Z,6.97
2019-04-20T20:14:53.073Z,7.03
2019-04-20T20:17:39.955Z,7.17
2019-04-20T20:20:14.724Z,9.73
2019-04-20T20:22:26.703Z,10.10
2019-04-20T20:24:43.022Z,7.37
2019-04-20T20:27:22.990Z,7.17
2019-04-20T20:29:45.369Z,8.27
2019-04-20T20:32:17.797Z,9.20
2019-04-20T20:34:38.272Z,7.20
2019-04-20T20:37:04.310Z,8.87
2019-04-20T20:39:31.000Z,11.27
2019-04-20T20:42:08.013Z,9.10
2019-04-20T20:44:33.075Z,12.33
2019-04-20T20:47:00.735Z,11.97
2019-04-20T20:49:33.194Z,11.67
2019-04-20T20:52:06.755Z,12.83
2019-04-20T20:54:29.509Z,13.33
2019-04-20T20:56:51.100Z,11.10
2019-04-20T20:59:14.004Z,13.17
2019-04-20T21:01:44.312Z,10.73
2019-04-20T21:04:02.542Z,12.50
2019-04-20T21:06:29.085Z,11.00
2019-04-20T21:08:59.951Z,13.03
2019-04-20T21:11:28.074Z,17.33
2019-04-20T21:13:52.807Z,16.47
2019-04-20T21:16:25.028Z,12.00
2019-04-20T21:18:59.881Z,12.07
2019-04-20T21:21:27.716Z,12.07
2019-04-20T21:23:50.805Z,14.50
2019-04-20T21:26:22.877Z,16.07
2019-04-20T21:28:40.045Z,17.00
2019-04-20T21:31:13.718Z,16.00
2019-04-20T21:33:37.780Z,13.10
2019-04-20T21:36:02.800Z,13.90
2019-04-20T21:38:35.455Z,16.50
2019-04-20T21:41:03.408Z,15.17
2019-04-20T21:43:29.465Z,16.70
2019-04-20T21:45:58.318Z,12.23
2019-04-20T21:48:40.665Z,14.63
2019-04-20T21:51:05.433Z,15.57
2019-04-20T21:53:18.469Z,17.40
2019-04-20T21:55:41.942Z,14.17
2019-04-20T21:58:10.353Z,15.10
2019-04-20T22:00:42.494Z,14.40
2019-04-20T22:03:07.776Z,15.33
2019-04-20T22:05:32.551Z,16.33
2019-04-20T22:08:03.326Z,15.13
2019-04-20T22:10:30.903Z,18.43
2019-04-20T22:12:59.303Z,16.50
2019-04-20T22:15:27.093Z,14.00
2019-04-20T22:17:50.559Z,16.37
2019-04-20T22:20:26.379Z,18.70
2019-04-20T22:23:00.851Z,15.37
2019-04-20T22:25:36.419Z,13.87
2019-04-20T22:27:40.447Z,18.50
2019-04-20T22:30:08.089Z,16.53
2019-04-20T22:32:37.562Z,19.33
2019-04-20T22:35:07.285Z,16.20
2019-04-20T22:37:31.493Z,17.90
2019-04-20T22:39:58.321Z,16.17
2019-04-20T22:42:24.175Z,16.93
2019-04-20T22:44:56.667Z,17.93
2019-04-20T22:47:23.295Z,20.13
2019-04-20T22:49:59.990Z,20.73
2019-04-20T22:52:30.464Z,21.53
2019-04-20T22:54:55.300Z,16.17
2019-04-20T22:57:27.934Z,17.10
2019-04-20T22:59:49.431Z,16.67
2019-04-20T23:02:06.149Z,14.30
2019-04-20T23:04:32.927Z,18.10
2019-04-20T23:06:59.165Z,17.47
2019-04-20T23:09:26.827Z,17.60
2019-04-20T23:12:02.936Z,19.47
2019-04-20T23:14:22.478Z,20.50
2019-04-20T23:16:53.532Z,18.60
2019-04-20T23:19:30.041Z,16.47
2019-04-20T23:21:48.646Z,18.20
2019-04-20T23:24:14.632Z,18.87
2019-04-20T23:26:42.545Z,17.97
2019-04-20T23:29:09.137Z,20.10
2019-04-20T23:31:40.089Z,16.77
2019-04-20T23:34:10.120Z,20.83
2019-04-20T23:36:37.170Z,21.53
2019-04-20T23:38:59.828Z,18.33
2019-04-20T23:41:25.946Z,22.83
2019-04-20T23:44:01.760Z,20.60
2019-04-20T23:46:33.231Z,22.50
2019-04-20T23:49:25.107Z,23.90
2019-04-20T23:52:05.931Z,22.87
2019-04-20T23:54:18.659Z,26.70
2019-04-20T23:56:40.081Z,24.90
2019-04-20T23:59:08.609Z,24.47
